Pellston Regional Airport of Emmet County Airport
KPLN : now visible

Airfield :











YOU CAN JOIN US ON...

 
LOGIN :

Register | Disclaimer

   EN    FR    IT 

 









Legend :    VFR   Marginal VFR   IFR   Intensive IFR   Very Intensive IFR
Visi :
Ceiling :
>= 8 km
>= 3000ft
5 to 8 km
1000 to 3000 ft
1500m to 5 km
500 to 1000 ft
800 to 1500m
200 to 500 ft
< 800m
< 200 ft
Symbols :   Thunderstorms  Fog  Heavy snow  Heavy precipitations  Wind > 20 kt






- Airport Elevation : 721 ft
- IATA code : PLN


KPLN - Pellston Regional of Emmet County

CURRENT METAR :
  • 172154Z AUTO 12010KT 10SM OVC040 M02/M11 A3011 RMK AO2 SLP213 T10171111

EXPIRED METARs :
  • 172054Z AUTO 13007KT 10SM BKN042 OVC110 M02/M12 A3013 RMK AO2 SLP219 T10221117 56025
  • 171954Z AUTO 12009KT 10SM SCT047 OVC110 M02/M12 A3014 RMK AO2 SLP225 T10221117

TAF KPLN
Valid from the 17 at 18:00 until the 18 at 18:00 UTC


171750Z 1718/1818 13008KT P6SM BKN100
FM180000 14008KT P6SM VCSH OVC045
FM180300 13010KT 5SM -SN OVC035
FM180500 12010KT 2SM -SN OVC019
FM180600 12009KT 1 1/2SM -SN OVC015
FM181200 31005KT 1SM -SHSN OVC007
FM181500 31011G26KT P6SM BKN013



MET'MAP, your aeronautical weather chart ! - Copyright ORBIFLY December 2007 - Disclaimer

ORBIFLY MET'MAP TEAM :

Programming & Development : Alexandra Zaïnal
Concept & original design : Baudouin d'Aumeries
Assistance for programming : Marc-Olivier Méhu
Technical & hardware support : Manuel Goepfert

Contact : metmap@orbifly.com




SOURCES & CREDITS :

   NOAA       Earth
Advisory